Worcester, United Kingdom
Current Conditions -  °F | °C
As of 2:50 PM on Friday 28 Nov 2014 (Local Time) from EGBJ Reporting Station
Broken Clouds Broken Clouds  
Wind Chill: 55°   Ceiling: 1500
Heat Index: 55°   Visibility: 5mi
Dew Point: 50°   Wind: 9mph
Humidity: 82%   Direction: 60°ENE
Pressure: 29.59"   Gusts: NA
Location:  52.19°N, 2.22°W
Report Text: EGBJ 281450Z 06008KT 8000 SCT011 BKN015 13/10 Q1002
Loading
Personal Weather Stations






























Interactive Weather Map New forecast layout! Learn more

10-Day Weather Forecast

Advertisements
Track Severe Weather on mobile